createdAt,value
2023-03-26T00:00:09.012Z,2.30
2023-03-26T00:02:39.045Z,2.90
2023-03-26T00:05:06.942Z,2.37
2023-03-26T00:07:34.352Z,2.53
2023-03-26T00:10:01.014Z,2.30
2023-03-26T00:12:28.327Z,2.27
2023-03-26T00:14:55.425Z,2.17
2023-03-26T00:17:22.137Z,2.63
2023-03-26T00:19:48.894Z,2.50
2023-03-26T00:22:16.333Z,2.13
2023-03-26T00:24:45.255Z,1.80
2023-03-26T00:27:11.912Z,2.03
2023-03-26T00:29:39.392Z,2.83
2023-03-26T00:32:06.376Z,1.60
2023-03-26T00:34:33.751Z,2.20
2023-03-26T00:37:01.976Z,2.43
2023-03-26T00:39:28.864Z,2.43
2023-03-26T00:41:55.603Z,2.20
2023-03-26T00:44:22.457Z,1.97
2023-03-26T00:46:49.854Z,1.40
2023-03-26T00:49:16.484Z,2.20
2023-03-26T00:51:43.119Z,1.73
2023-03-26T00:54:10.318Z,1.93
2023-03-26T00:56:38.002Z,2.53
2023-03-26T00:59:04.669Z,1.60
2023-03-26T01:01:31.702Z,1.70
2023-03-26T01:04:23.392Z,1.50
2023-03-26T01:06:50.218Z,1.80
2023-03-26T01:09:19.496Z,2.23
2023-03-26T01:11:47.377Z,1.60
2023-03-26T01:14:17.484Z,1.07
2023-03-26T01:16:49.164Z,1.60
2023-03-26T01:19:23.566Z,1.90
2023-03-26T01:21:50.289Z,1.90
2023-03-26T01:24:17.639Z,1.60
2023-03-26T01:27:12.318Z,1.97
2023-03-26T01:29:43.977Z,1.60
2023-03-26T01:32:22.946Z,1.70
2023-03-26T01:35:03.983Z,2.10
2023-03-26T01:37:38.268Z,2.30
2023-03-26T01:40:11.745Z,2.60
2023-03-26T01:42:45.077Z,2.40
2023-03-26T01:45:15.980Z,1.90
2023-03-26T01:47:43.898Z,1.90
2023-03-26T01:50:11.091Z,1.80
2023-03-26T01:52:37.899Z,1.20
2023-03-26T01:55:10.919Z,1.20
2023-03-26T01:57:47.170Z,1.50
2023-03-26T02:00:22.864Z,1.30
2023-03-26T02:03:16.807Z,1.30
2023-03-26T02:05:50.732Z,0.90
2023-03-26T02:08:22.885Z,1.40
2023-03-26T02:10:54.190Z,1.20
2023-03-26T02:13:21.139Z,1.67
2023-03-26T02:15:58.992Z,0.97
2023-03-26T02:18:35.956Z,1.47
2023-03-26T02:21:04.720Z,1.10
2023-03-26T02:23:35.020Z,1.13
2023-03-26T02:26:05.568Z,1.20
2023-03-26T02:28:32.504Z,1.07
2023-03-26T02:31:01.131Z,1.40
2023-03-26T02:33:28.036Z,1.53
2023-03-26T02:35:58.784Z,1.20
2023-03-26T02:38:26.234Z,2.40
2023-03-26T02:40:53.385Z,2.67
2023-03-26T02:43:21.023Z,1.60
2023-03-26T02:45:47.850Z,1.77
2023-03-26T02:48:14.826Z,2.20
2023-03-26T02:50:41.798Z,1.87
2023-03-26T02:53:08.673Z,1.77
2023-03-26T02:55:35.444Z,1.37
2023-03-26T02:58:02.206Z,1.33
2023-03-26T03:00:29.588Z,1.47
2023-03-26T03:02:57.435Z,1.67
2023-03-26T03:05:25.862Z,1.97
2023-03-26T03:07:57.243Z,1.67
2023-03-26T03:10:25.003Z,2.23
2023-03-26T03:12:51.786Z,1.57
2023-03-26T03:15:18.582Z,1.80
2023-03-26T03:17:46.016Z,1.80
2023-03-26T03:20:13.130Z,2.23
2023-03-26T03:22:40.480Z,2.30
2023-03-26T03:25:08.682Z,2.23
2023-03-26T03:27:38.570Z,2.13
2023-03-26T03:30:06.581Z,1.83
2023-03-26T03:32:33.378Z,2.30
2023-03-26T03:35:00.847Z,2.30
2023-03-26T03:37:27.537Z,2.40
2023-03-26T03:39:54.157Z,2.03
2023-03-26T03:42:20.886Z,2.27
2023-03-26T03:44:47.614Z,2.30
2023-03-26T03:47:15.098Z,2.23
2023-03-26T03:49:41.802Z,2.50
2023-03-26T03:52:09.169Z,2.80
2023-03-26T03:54:35.831Z,2.27
2023-03-26T03:57:02.752Z,2.30
2023-03-26T03:59:29.481Z,3.60
2023-03-26T04:01:56.188Z,2.47
2023-03-26T04:04:23.905Z,2.20
2023-03-26T04:06:51.197Z,2.10
2023-03-26T04:09:18.585Z,2.27
2023-03-26T04:11:45.326Z,2.43
2023-03-26T04:14:11.990Z,2.30
2023-03-26T04:16:38.679Z,2.33
2023-03-26T04:19:05.356Z,1.83
2023-03-26T04:21:33.276Z,1.60
2023-03-26T04:24:01.456Z,2.30
2023-03-26T04:26:30.250Z,1.40
2023-03-26T04:29:00.233Z,2.70
2023-03-26T04:31:28.660Z,1.80
2023-03-26T04:33:59.417Z,2.00
2023-03-26T04:36:28.663Z,2.43
2023-03-26T04:38:57.641Z,2.53
2023-03-26T04:41:25.882Z,2.03
2023-03-26T04:43:53.322Z,2.50
2023-03-26T04:46:21.555Z,1.90
2023-03-26T04:48:48.255Z,2.60
2023-03-26T04:51:17.436Z,2.37
2023-03-26T04:53:49.025Z,2.50
2023-03-26T04:56:29.334Z,2.43
2023-03-26T04:59:01.256Z,2.47
2023-03-26T05:01:29.982Z,2.00
2023-03-26T05:03:57.929Z,1.80
2023-03-26T05:06:27.221Z,2.07
2023-03-26T05:08:54.373Z,1.70
2023-03-26T05:11:21.069Z,1.83
2023-03-26T05:13:47.757Z,1.60
2023-03-26T05:16:15.103Z,1.63
2023-03-26T05:18:41.784Z,1.80
2023-03-26T05:21:08.386Z,1.53
2023-03-26T05:23:35.032Z,2.03
2023-03-26T05:26:01.689Z,2.10
2023-03-26T05:28:28.333Z,1.93
2023-03-26T05:30:55.300Z,2.20
2023-03-26T05:33:23.208Z,1.77
2023-03-26T05:36:00.277Z,2.47
2023-03-26T05:38:28.553Z,2.17
2023-03-26T05:40:58.790Z,2.40
2023-03-26T05:43:25.539Z,2.47
2023-03-26T05:45:52.494Z,2.03
2023-03-26T05:48:20.207Z,2.40
2023-03-26T05:50:48.863Z,1.93
2023-03-26T05:53:15.616Z,2.30
2023-03-26T05:55:45.040Z,1.93
2023-03-26T05:58:12.111Z,2.47
2023-03-26T06:00:39.046Z,1.80
2023-03-26T06:03:11.739Z,2.30
2023-03-26T06:05:39.343Z,2.03
2023-03-26T06:08:07.080Z,1.87
2023-03-26T06:10:33.774Z,2.30
2023-03-26T06:13:00.622Z,1.97
2023-03-26T06:15:27.317Z,1.93
2023-03-26T06:17:54.050Z,1.90
2023-03-26T06:20:20.837Z,2.03
2023-03-26T06:22:47.748Z,1.77
2023-03-26T06:25:15.475Z,1.73
2023-03-26T06:27:42.268Z,1.80
2023-03-26T06:30:09.895Z,2.00
2023-03-26T06:32:36.753Z,1.80
2023-03-26T06:35:03.678Z,1.70
2023-03-26T06:37:30.447Z,1.60
2023-03-26T06:39:57.188Z,2.40
2023-03-26T06:42:32.169Z,1.80
2023-03-26T06:45:11.570Z,1.80
2023-03-26T06:47:38.424Z,1.90
2023-03-26T06:50:06.411Z,1.90
2023-03-26T06:52:33.111Z,3.37
2023-03-26T06:55:00.238Z,1.70
2023-03-26T06:57:27.613Z,1.70
2023-03-26T06:59:54.372Z,1.83
2023-03-26T07:02:21.225Z,2.10
2023-03-26T07:04:48.029Z,2.53
2023-03-26T07:07:14.960Z,1.93
2023-03-26T07:09:41.638Z,2.10
2023-03-26T07:12:08.375Z,2.33
2023-03-26T07:14:38.005Z,1.77
2023-03-26T07:17:05.100Z,2.13
2023-03-26T07:19:32.029Z,1.80
2023-03-26T07:21:59.346Z,1.90
2023-03-26T07:24:26.864Z,2.43
2023-03-26T07:27:00.566Z,2.00
2023-03-26T07:29:34.662Z,1.90
2023-03-26T07:32:12.148Z,1.70
2023-03-26T07:34:50.190Z,1.37
2023-03-26T07:37:27.731Z,2.00
2023-03-26T07:40:00.227Z,2.00
2023-03-26T07:42:40.364Z,1.70
2023-03-26T07:45:19.246Z,1.47
2023-03-26T07:47:49.190Z,1.57
2023-03-26T07:50:19.145Z,1.70
2023-03-26T07:52:46.306Z,1.90
2023-03-26T07:55:14.780Z,1.30
2023-03-26T07:57:55.631Z,2.07
2023-03-26T08:00:28.820Z,1.50
2023-03-26T08:03:21.326Z,1.93
2023-03-26T08:05:53.303Z,1.80
2023-03-26T08:08:32.097Z,2.13
2023-03-26T08:11:13.548Z,1.80
2023-03-26T08:13:52.960Z,1.63
2023-03-26T08:16:25.171Z,1.57
2023-03-26T08:18:59.810Z,2.00
2023-03-26T08:21:33.179Z,1.80
2023-03-26T08:24:05.686Z,2.30
2023-03-26T08:26:39.401Z,1.93
2023-03-26T08:29:17.775Z,1.50
2023-03-26T08:31:46.179Z,2.83
2023-03-26T08:34:13.936Z,2.07
2023-03-26T08:36:40.714Z,2.37
2023-03-26T08:39:08.281Z,1.50
2023-03-26T08:42:03.378Z,1.80
2023-03-26T08:45:02.564Z,2.10
2023-03-26T08:48:02.961Z,2.20
2023-03-26T08:51:27.367Z,2.67
2023-03-26T08:54:23.927Z,2.43
2023-03-26T08:56:57.488Z,1.67
2023-03-26T08:59:56.044Z,3.60
2023-03-26T09:02:48.344Z,2.33
2023-03-26T09:05:34.718Z,2.37
2023-03-26T09:08:30.128Z,2.40
2023-03-26T09:11:22.524Z,2.43
2023-03-26T09:14:13.250Z,2.30
2023-03-26T09:17:04.755Z,2.50
2023-03-26T09:20:13.514Z,2.77
2023-03-26T09:23:17.485Z,2.97
2023-03-26T09:26:10.623Z,2.70
2023-03-26T09:29:16.150Z,3.10
2023-03-26T09:32:05.035Z,2.63
2023-03-26T09:34:35.310Z,3.07
2023-03-26T09:37:17.797Z,3.07
2023-03-26T09:40:04.349Z,2.20
2023-03-26T09:42:43.130Z,2.50
2023-03-26T09:45:39.901Z,2.00
2023-03-26T09:48:30.127Z,2.07
2023-03-26T09:51:19.778Z,1.90
2023-03-26T09:54:27.369Z,2.47
2023-03-26T09:57:08.517Z,1.90
2023-03-26T10:00:04.132Z,1.80
2023-03-26T10:02:55.189Z,2.53
2023-03-26T10:05:33.631Z,2.03
2023-03-26T10:08:13.739Z,2.50
2023-03-26T10:10:46.783Z,2.60
2023-03-26T10:13:27.617Z,2.17
2023-03-26T10:16:09.830Z,2.37
2023-03-26T10:18:51.191Z,2.47
2023-03-26T10:21:28.590Z,2.20
2023-03-26T10:24:11.517Z,2.10
2023-03-26T10:27:09.033Z,2.30
2023-03-26T10:30:07.706Z,2.40
2023-03-26T10:32:44.679Z,2.27
2023-03-26T10:35:23.645Z,3.03
2023-03-26T10:38:04.685Z,2.53
2023-03-26T10:40:35.550Z,2.83
2023-03-26T10:43:47.953Z,3.13
2023-03-26T10:46:36.139Z,3.40
2023-03-26T10:49:50.112Z,2.77
2023-03-26T10:52:21.136Z,2.70
2023-03-26T10:54:55.662Z,3.40
2023-03-26T10:57:35.443Z,2.97
2023-03-26T11:00:26.558Z,3.17
2023-03-26T11:03:20.690Z,3.73
2023-03-26T11:05:55.089Z,2.87
2023-03-26T11:08:36.686Z,3.37
2023-03-26T11:11:10.118Z,3.23
2023-03-26T11:13:45.995Z,2.87
2023-03-26T11:16:19.320Z,3.27
2023-03-26T11:18:52.986Z,3.73
2023-03-26T11:21:27.251Z,3.50
2023-03-26T11:24:06.474Z,3.37
2023-03-26T11:26:41.780Z,2.30
2023-03-26T11:29:31.808Z,2.80
2023-03-26T11:32:05.814Z,3.00
2023-03-26T11:34:38.248Z,4.20
2023-03-26T11:37:15.345Z,3.63
2023-03-26T11:39:49.289Z,3.27
2023-03-26T11:42:18.593Z,3.43
2023-03-26T11:44:52.486Z,2.87
2023-03-26T11:47:24.469Z,2.90
2023-03-26T11:49:55.530Z,3.87
2023-03-26T11:52:22.936Z,3.33
2023-03-26T11:54:49.972Z,3.87
2023-03-26T11:57:21.622Z,3.23
2023-03-26T11:59:57.522Z,4.27
2023-03-26T12:02:28.693Z,2.83
2023-03-26T12:05:12.454Z,7.47
2023-03-26T12:07:46.502Z,3.27
2023-03-26T12:10:28.281Z,3.10
2023-03-26T12:12:58.098Z,3.40
2023-03-26T12:15:25.968Z,3.37
2023-03-26T12:17:56.467Z,3.27
2023-03-26T12:20:35.970Z,3.13
2023-03-26T12:23:05.848Z,3.70
2023-03-26T12:25:34.679Z,3.07
2023-03-26T12:28:03.198Z,3.10
2023-03-26T12:30:33.149Z,3.33
2023-03-26T12:33:02.932Z,2.87
2023-03-26T12:35:31.503Z,3.17
2023-03-26T12:38:15.679Z,3.20
2023-03-26T12:40:42.651Z,2.37
2023-03-26T12:44:48.224Z,2.53
2023-03-26T12:47:54.155Z,2.17
2023-03-26T12:49:11.834Z,2.60
2023-03-26T12:51:46.988Z,3.03
2023-03-26T12:54:26.078Z,2.47
2023-03-26T12:57:12.148Z,2.90
2023-03-26T12:59:49.773Z,2.03
2023-03-26T13:02:48.554Z,3.33
2023-03-26T13:05:28.727Z,3.13
2023-03-26T13:08:06.924Z,3.03
2023-03-26T13:10:50.675Z,2.53
2023-03-26T13:13:44.933Z,2.23
2023-03-26T13:16:23.612Z,2.87
2023-03-26T13:18:55.503Z,2.90
2023-03-26T13:21:31.158Z,2.40
2023-03-26T13:24:10.639Z,2.00
2023-03-26T13:26:54.205Z,1.80
2023-03-26T13:29:28.090Z,2.00
2023-03-26T13:32:06.415Z,2.03
2023-03-26T13:34:53.441Z,1.93
2023-03-26T13:37:25.247Z,1.77
2023-03-26T13:40:04.529Z,1.70
2023-03-26T13:42:46.228Z,1.40
2023-03-26T13:45:28.019Z,2.07
2023-03-26T13:47:58.170Z,1.63
2023-03-26T13:50:28.692Z,1.60
2023-03-26T13:53:00.316Z,1.97
2023-03-26T13:55:30.621Z,1.33
2023-03-26T13:58:04.279Z,1.63
2023-03-26T14:00:42.645Z,1.67
2023-03-26T14:03:17.284Z,1.80
2023-03-26T14:05:47.010Z,1.70
2023-03-26T14:08:21.781Z,1.87
2023-03-26T14:10:53.257Z,1.60
2023-03-26T14:13:26.479Z,1.90
2023-03-26T14:15:56.833Z,2.00
2023-03-26T14:18:32.237Z,1.97
2023-03-26T14:21:28.526Z,1.53
2023-03-26T14:24:23.381Z,1.50
2023-03-26T14:27:06.005Z,1.43
2023-03-26T14:29:57.117Z,2.07
2023-03-26T14:32:46.605Z,1.93
2023-03-26T14:35:34.382Z,1.80
2023-03-26T14:38:39.575Z,1.80
2023-03-26T14:41:17.657Z,1.97
2023-03-26T14:44:25.874Z,1.83
2023-03-26T14:47:14.529Z,1.80
2023-03-26T14:50:20.854Z,2.00
2023-03-26T14:52:49.383Z,1.50
2023-03-26T14:55:31.355Z,1.80
2023-03-26T14:58:33.354Z,2.27
2023-03-26T15:01:23.123Z,1.60
2023-03-26T15:04:38.736Z,1.67
2023-03-26T15:07:38.546Z,1.70
2023-03-26T15:10:31.495Z,2.00
2023-03-26T15:13:20.335Z,1.70
2023-03-26T15:16:18.099Z,1.93
2023-03-26T15:19:29.971Z,1.60
2023-03-26T15:22:46.908Z,1.90
2023-03-26T15:25:46.557Z,1.30
2023-03-26T15:28:38.451Z,1.90
2023-03-26T15:31:35.981Z,2.40
2023-03-26T15:34:33.012Z,1.83
2023-03-26T15:37:38.492Z,1.60
2023-03-26T15:40:35.648Z,1.53
2023-03-26T15:43:10.235Z,2.23
2023-03-26T15:45:39.298Z,2.33
2023-03-26T15:48:33.514Z,2.57
2023-03-26T15:51:21.664Z,2.93
2023-03-26T15:53:54.515Z,2.07
2023-03-26T15:56:33.781Z,2.37
2023-03-26T15:59:06.830Z,1.97
2023-03-26T16:01:50.047Z,2.37
2023-03-26T16:04:25.742Z,2.60
2023-03-26T16:07:03.006Z,2.30
2023-03-26T16:09:50.898Z,2.87
2023-03-26T16:12:35.982Z,1.87
2023-03-26T16:15:28.797Z,1.83
2023-03-26T16:18:25.830Z,2.10
2023-03-26T16:20:54.938Z,1.57
2023-03-26T16:23:28.848Z,2.07
2023-03-26T16:26:00.901Z,2.10
2023-03-26T16:28:33.598Z,1.93
2023-03-26T16:31:36.746Z,3.07
2023-03-26T16:34:27.990Z,3.00
2023-03-26T16:36:57.330Z,3.03
2023-03-26T16:39:37.403Z,2.53
2023-03-26T16:42:26.357Z,3.00
2023-03-26T16:45:08.857Z,2.73
2023-03-26T16:47:45.460Z,2.37
2023-03-26T16:50:25.224Z,2.63
2023-03-26T16:53:00.236Z,2.03
2023-03-26T16:55:40.372Z,2.13
2023-03-26T16:58:21.281Z,2.80
2023-03-26T17:00:54.317Z,2.77
2023-03-26T17:03:33.285Z,2.67
2023-03-26T17:06:13.783Z,2.00
2023-03-26T17:08:48.141Z,2.30
2023-03-26T17:11:26.995Z,2.63
2023-03-26T17:14:06.029Z,3.23
2023-03-26T17:16:38.886Z,3.57
2023-03-26T17:19:17.049Z,3.30
2023-03-26T17:21:52.154Z,3.87
2023-03-26T17:24:29.820Z,4.33
2023-03-26T17:27:16.782Z,4.03
2023-03-26T17:30:10.862Z,4.23
2023-03-26T17:32:58.022Z,6.53
2023-03-26T17:35:41.134Z,4.53
2023-03-26T17:38:40.410Z,4.47
2023-03-26T17:41:13.423Z,4.17
2023-03-26T17:43:46.158Z,3.90
2023-03-26T17:46:26.449Z,3.23
2023-03-26T17:48:59.225Z,3.53
2023-03-26T17:51:45.808Z,3.43
2023-03-26T17:54:22.423Z,3.60
2023-03-26T17:56:51.516Z,3.93
2023-03-26T17:59:24.071Z,3.27
2023-03-26T18:01:54.719Z,2.47
2023-03-26T18:04:34.951Z,2.77
2023-03-26T18:07:43.436Z,2.77
2023-03-26T18:10:32.442Z,2.20
2023-03-26T18:13:34.112Z,2.63
2023-03-26T18:16:12.813Z,3.10
2023-03-26T18:18:47.731Z,2.90
2023-03-26T18:21:21.734Z,2.70
2023-03-26T18:23:50.307Z,2.87
2023-03-26T18:26:20.765Z,3.33
2023-03-26T18:28:52.569Z,2.67
2023-03-26T18:31:22.535Z,2.67
2023-03-26T18:33:53.673Z,3.30
2023-03-26T18:36:25.516Z,2.97
2023-03-26T18:38:57.600Z,2.40
2023-03-26T18:41:28.374Z,2.73
2023-03-26T18:43:55.428Z,2.97
2023-03-26T18:46:23.550Z,3.00
2023-03-26T18:48:51.570Z,2.67
2023-03-26T18:51:22.207Z,2.83
2023-03-26T18:53:54.292Z,3.30
2023-03-26T18:56:29.909Z,3.20
2023-03-26T18:58:58.323Z,3.90
2023-03-26T19:01:30.126Z,3.50
2023-03-26T19:03:58.994Z,3.83
2023-03-26T19:06:26.777Z,3.60
2023-03-26T19:08:54.496Z,3.57
2023-03-26T19:11:21.573Z,2.97
2023-03-26T19:13:59.153Z,3.87
2023-03-26T19:16:32.929Z,2.90
2023-03-26T19:19:01.118Z,3.10
2023-03-26T19:21:28.813Z,3.10
2023-03-26T19:23:56.099Z,2.97
2023-03-26T19:26:22.794Z,3.30
2023-03-26T19:28:52.751Z,3.53
2023-03-26T19:31:23.740Z,4.90
2023-03-26T19:33:57.051Z,3.20
2023-03-26T19:36:25.594Z,3.00
2023-03-26T19:39:02.109Z,2.80
2023-03-26T19:41:33.740Z,3.10
2023-03-26T19:44:02.249Z,3.10
2023-03-26T19:46:33.848Z,3.60
2023-03-26T19:49:28.550Z,3.60
2023-03-26T19:52:12.375Z,3.93
2023-03-26T19:54:59.755Z,3.20
2023-03-26T19:57:28.912Z,3.90
2023-03-26T19:59:55.814Z,3.30
2023-03-26T20:02:23.309Z,3.67
2023-03-26T20:04:50.398Z,3.37
2023-03-26T20:07:18.418Z,3.33
2023-03-26T20:09:46.080Z,3.40
2023-03-26T20:12:14.427Z,3.60
2023-03-26T20:14:42.824Z,3.37
2023-03-26T20:17:13.463Z,2.97
2023-03-26T20:19:40.423Z,3.37
2023-03-26T20:22:12.597Z,3.27
2023-03-26T20:24:39.320Z,3.93
2023-03-26T20:27:06.880Z,3.77
2023-03-26T20:29:33.698Z,3.83
2023-03-26T20:32:00.525Z,3.73
2023-03-26T20:34:27.465Z,3.47
2023-03-26T20:36:55.643Z,3.27
2023-03-26T20:39:23.651Z,3.83
2023-03-26T20:41:52.644Z,4.00
2023-03-26T20:44:22.106Z,3.00
2023-03-26T20:46:49.808Z,3.67
2023-03-26T20:49:17.510Z,4.07
2023-03-26T20:51:44.945Z,4.60
2023-03-26T20:54:17.362Z,4.87
2023-03-26T20:56:45.000Z,4.23
2023-03-26T20:59:17.357Z,3.70
2023-03-26T21:01:46.387Z,3.93
2023-03-26T21:04:13.215Z,3.00
2023-03-26T21:06:39.895Z,3.90
2023-03-26T21:09:09.249Z,4.60
2023-03-26T21:11:47.186Z,4.43
2023-03-26T21:14:20.477Z,4.80
2023-03-26T21:16:48.781Z,5.90
2023-03-26T21:19:16.212Z,4.40
2023-03-26T21:21:55.422Z,4.60
2023-03-26T21:24:34.078Z,3.83
2023-03-26T21:27:09.521Z,3.83
2023-03-26T21:29:37.419Z,4.07
2023-03-26T21:32:05.675Z,3.93
2023-03-26T21:34:33.567Z,3.80
2023-03-26T21:37:01.732Z,3.00
2023-03-26T21:39:29.231Z,3.93
2023-03-26T21:42:05.180Z,4.13
2023-03-26T21:44:33.299Z,3.93
2023-03-26T21:47:00.916Z,5.53
2023-03-26T21:49:30.160Z,3.10
2023-03-26T21:51:57.429Z,3.43
2023-03-26T21:54:26.302Z,3.80
2023-03-26T21:57:10.880Z,3.47
2023-03-26T21:59:44.875Z,4.03
2023-03-26T22:02:19.107Z,3.33
2023-03-26T22:04:51.573Z,3.57
2023-03-26T22:07:22.557Z,3.83
2023-03-26T22:09:49.851Z,3.33
2023-03-26T22:12:17.067Z,3.57
2023-03-26T22:14:44.242Z,3.30
2023-03-26T22:17:10.943Z,3.90
2023-03-26T22:19:37.751Z,3.00
2023-03-26T22:22:05.206Z,3.23
2023-03-26T22:24:32.182Z,3.33
2023-03-26T22:26:58.871Z,4.33
2023-03-26T22:29:26.706Z,3.10
2023-03-26T22:31:53.443Z,4.10
2023-03-26T22:34:20.548Z,3.53
2023-03-26T22:36:47.339Z,4.13
2023-03-26T22:39:14.866Z,3.60
2023-03-26T22:41:41.592Z,2.93
2023-03-26T22:44:18.926Z,3.47
2023-03-26T22:46:48.242Z,3.07
2023-03-26T22:49:14.983Z,3.13
2023-03-26T22:51:41.697Z,3.03
2023-03-26T22:54:08.811Z,3.50
2023-03-26T22:56:36.357Z,3.57
2023-03-26T22:59:03.373Z,3.67
2023-03-26T23:01:30.893Z,2.53
2023-03-26T23:03:57.614Z,3.20
2023-03-26T23:06:24.946Z,3.00
2023-03-26T23:08:51.718Z,3.13
2023-03-26T23:11:21.256Z,2.73
2023-03-26T23:13:49.390Z,2.27
2023-03-26T23:16:17.184Z,3.17
2023-03-26T23:18:44.288Z,2.93
2023-03-26T23:21:14.039Z,3.40
2023-03-26T23:23:41.539Z,3.30
2023-03-26T23:26:08.373Z,2.60
2023-03-26T23:28:35.577Z,2.57
2023-03-26T23:31:05.584Z,2.67
2023-03-26T23:33:34.638Z,2.60
2023-03-26T23:36:08.081Z,2.80
2023-03-26T23:38:43.372Z,2.17
2023-03-26T23:41:14.257Z,3.03
2023-03-26T23:43:54.720Z,2.67
2023-03-26T23:46:24.441Z,2.30
2023-03-26T23:48:51.723Z,2.33
2023-03-26T23:51:19.296Z,2.43
2023-03-26T23:53:46.748Z,2.97
2023-03-26T23:56:14.579Z,2.33
2023-03-26T23:58:41.265Z,2.23
